createdAt,value
2019-05-12T00:00:08.255Z,98881.80
2019-05-12T00:02:39.444Z,98882.63
2019-05-12T00:05:08.742Z,98888.09
2019-05-12T00:07:38.142Z,98895.20
2019-05-12T00:10:08.607Z,98891.88
2019-05-12T00:12:38.430Z,98898.48
2019-05-12T00:15:08.460Z,98893.58
2019-05-12T00:17:38.778Z,98904.36
2019-05-12T00:20:08.537Z,98899.61
2019-05-12T00:22:38.851Z,98898.98
2019-05-12T00:25:08.780Z,98901.70
2019-05-12T00:27:38.767Z,98903.14
2019-05-12T00:30:09.906Z,98899.22
2019-05-12T00:32:38.656Z,98907.80
2019-05-12T00:35:08.016Z,98903.98
2019-05-12T00:37:38.123Z,98907.13
2019-05-12T00:40:08.853Z,98918.34
2019-05-12T00:42:38.066Z,98918.23
2019-05-12T00:45:08.069Z,98927.13
2019-05-12T00:47:38.855Z,98928.77
2019-05-12T00:50:08.018Z,98934.98
2019-05-12T00:52:38.610Z,98942.13
2019-05-12T00:55:07.915Z,98952.95
2019-05-12T00:57:38.335Z,98948.82
2019-05-12T01:00:10.649Z,98955.66
2019-05-12T01:02:39.120Z,98954.24
2019-05-12T01:05:10.650Z,98963.48
2019-05-12T01:07:39.121Z,98963.77
2019-05-12T01:10:08.731Z,98969.42
2019-05-12T01:12:38.209Z,98975.75
2019-05-12T01:15:07.574Z,98987.73
2019-05-12T01:17:40.052Z,98982.42
2019-05-12T01:20:08.876Z,98992.53
2019-05-12T01:22:38.356Z,98996.54
2019-05-12T01:25:08.645Z,98998.64
2019-05-12T01:27:38.149Z,99002.75
2019-05-12T01:30:08.813Z,99015.28
2019-05-12T01:32:39.128Z,99017.48
2019-05-12T01:35:08.568Z,99022.70
2019-05-12T01:37:38.336Z,99023.24
2019-05-12T01:40:09.188Z,99024.76
2019-05-12T01:42:38.332Z,99028.58
2019-05-12T01:45:09.342Z,99033.72
2019-05-12T01:47:38.268Z,99038.59
2019-05-12T01:50:09.173Z,99045.88
2019-05-12T01:52:38.615Z,99046.78
2019-05-12T01:55:08.331Z,99058.92
2019-05-12T01:57:38.530Z,99058.44
2019-05-12T02:00:12.406Z,99067.11
2019-05-12T02:02:40.939Z,99065.45
2019-05-12T02:05:10.255Z,99078.18
2019-05-12T02:07:47.979Z,99085.54
2019-05-12T02:10:17.987Z,99089.77
2019-05-12T02:12:49.139Z,99092.38
2019-05-12T02:15:18.473Z,99101.67
2019-05-12T02:17:48.159Z,99103.12
2019-05-12T02:20:18.089Z,99109.75
2019-05-12T02:22:47.711Z,99116.22
2019-05-12T02:25:18.433Z,99121.50
2019-05-12T02:27:47.630Z,99121.67
2019-05-12T02:30:19.803Z,99128.75
2019-05-12T02:32:52.372Z,99134.17
2019-05-12T02:35:17.742Z,99142.56
2019-05-12T02:37:46.194Z,99144.91
2019-05-12T02:40:15.494Z,99142.63
2019-05-12T02:42:46.257Z,99157.97
2019-05-12T02:45:15.959Z,99160.51
2019-05-12T02:47:45.752Z,99158.62
2019-05-12T02:50:16.073Z,99158.73
2019-05-12T02:52:44.715Z,99176.20
2019-05-12T02:55:14.993Z,99176.16
2019-05-12T02:57:45.261Z,99180.20
2019-05-12T03:00:15.870Z,99182.84
2019-05-12T03:02:45.844Z,99198.46
2019-05-12T03:05:15.000Z,99198.46
2019-05-12T03:07:44.933Z,99201.06
2019-05-12T03:10:14.623Z,99202.29
2019-05-12T03:12:44.923Z,99206.09
2019-05-12T03:15:15.247Z,99214.77
2019-05-12T03:17:44.374Z,99221.05
2019-05-12T03:20:15.335Z,99220.33
2019-05-12T03:22:44.757Z,99220.33
2019-05-12T03:25:20.904Z,99231.00
2019-05-12T03:27:44.585Z,99236.41
2019-05-12T03:30:18.924Z,99233.58
2019-05-12T03:32:47.176Z,99242.12
2019-05-12T03:35:17.444Z,99240.31
2019-05-12T03:37:45.307Z,99247.98
2019-05-12T03:40:14.590Z,99252.73
2019-05-12T03:42:44.464Z,99260.06
2019-05-12T03:45:14.991Z,99260.70
2019-05-12T03:47:45.574Z,99263.55
2019-05-12T03:50:14.954Z,99273.07
2019-05-12T03:52:44.958Z,99278.03
2019-05-12T03:55:30.970Z,99281.09
2019-05-12T03:57:45.037Z,99276.38
2019-05-12T04:00:15.821Z,99283.83
2019-05-12T04:02:45.333Z,99288.25
2019-05-12T04:05:15.462Z,99303.93
2019-05-12T04:07:45.134Z,99300.75
2019-05-12T04:10:15.625Z,99305.49
2019-05-12T04:12:44.804Z,99306.70
2019-05-12T04:15:15.173Z,99310.98
2019-05-12T04:17:45.567Z,99323.50
2019-05-12T04:20:15.431Z,99323.36
2019-05-12T04:22:44.813Z,99324.34
2019-05-12T04:25:14.542Z,99330.80
2019-05-12T04:27:45.039Z,99325.21
2019-05-12T04:30:14.717Z,99327.16
2019-05-12T04:32:45.131Z,99334.08
2019-05-12T04:35:14.820Z,99331.14
2019-05-12T04:37:44.839Z,99338.72
2019-05-12T04:40:14.826Z,99354.16
2019-05-12T04:42:45.260Z,99358.81
2019-05-12T04:45:15.640Z,99354.97
2019-05-12T04:47:45.087Z,99358.81
2019-05-12T04:50:15.572Z,99360.64
2019-05-12T04:52:44.763Z,99363.72
2019-05-12T04:55:15.007Z,99371.88
2019-05-12T04:57:44.986Z,99377.33
2019-05-12T05:00:15.721Z,99377.44
2019-05-12T05:02:45.539Z,99387.38
2019-05-12T05:05:14.661Z,99395.41
2019-05-12T05:07:44.736Z,99393.75
2019-05-12T05:10:14.523Z,99404.19
2019-05-12T05:12:45.027Z,99404.33
2019-05-12T05:15:14.759Z,99407.73
2019-05-12T05:17:44.164Z,99420.77
2019-05-12T05:20:13.616Z,99426.88
2019-05-12T05:22:44.023Z,99442.39
2019-05-12T05:25:14.396Z,99445.88
2019-05-12T05:27:44.347Z,99449.70
2019-05-12T05:30:13.828Z,99452.41
2019-05-12T05:32:44.519Z,99460.53
2019-05-12T05:35:13.730Z,99466.80
2019-05-12T05:37:44.275Z,99470.87
2019-05-12T05:40:14.095Z,99478.98
2019-05-12T05:42:43.894Z,99471.93
2019-05-12T05:45:19.543Z,99488.69
2019-05-12T05:47:44.302Z,99488.06
2019-05-12T05:50:13.669Z,99497.13
2019-05-12T05:52:43.802Z,99493.05
2019-05-12T05:55:19.979Z,99480.77
2019-05-12T05:57:44.427Z,99481.14
2019-05-12T06:00:22.909Z,99491.72
2019-05-12T06:02:44.218Z,99491.45
2019-05-12T06:05:14.461Z,99498.95
2019-05-12T06:07:44.337Z,99514.78
2019-05-12T06:10:14.480Z,99524.27
2019-05-12T06:12:48.641Z,99537.70
2019-05-12T06:15:13.692Z,99543.48
2019-05-12T06:17:43.906Z,99545.52
2019-05-12T06:20:13.437Z,99545.83
2019-05-12T06:22:43.796Z,99546.80
2019-05-12T06:25:16.052Z,99545.16
2019-05-12T06:27:44.326Z,99549.03
2019-05-12T06:30:14.805Z,99554.82
2019-05-12T06:32:50.270Z,99560.75
2019-05-12T06:35:15.109Z,99561.02
2019-05-12T06:37:44.334Z,99568.95
2019-05-12T06:40:14.052Z,99563.33
2019-05-12T06:42:43.577Z,99572.95
2019-05-12T06:45:14.158Z,99577.62
2019-05-12T06:47:47.432Z,99590.45
2019-05-12T06:50:14.593Z,99593.62
2019-05-12T06:52:47.474Z,99592.38
2019-05-12T06:55:14.606Z,99602.81
2019-05-12T06:57:45.832Z,99603.97
2019-05-12T07:00:14.605Z,99606.13
2019-05-12T07:02:52.114Z,99597.61
2019-05-12T07:05:14.621Z,99611.77
2019-05-12T07:07:46.039Z,99615.67
2019-05-12T07:10:35.150Z,99622.33
2019-05-12T07:12:58.252Z,99627.53
2019-05-12T07:15:14.603Z,99626.09
2019-05-12T07:17:49.727Z,99630.70
2019-05-12T07:20:17.699Z,99624.12
2019-05-12T07:22:48.642Z,99627.36
2019-05-12T07:25:16.372Z,99637.55
2019-05-12T07:27:53.284Z,99643.86
2019-05-12T07:30:16.565Z,99645.47
2019-05-12T07:32:45.212Z,99636.00
2019-05-12T07:35:14.789Z,99642.59
2019-05-12T07:37:45.048Z,99642.22
2019-05-12T07:40:13.837Z,99642.27
2019-05-12T07:42:43.899Z,99644.46
2019-05-12T07:45:20.622Z,99644.41
2019-05-12T07:47:44.975Z,99646.27
2019-05-12T07:50:16.325Z,99651.38
2019-05-12T07:52:44.232Z,99645.30
2019-05-12T07:55:14.762Z,99647.19
2019-05-12T07:57:53.026Z,99648.34
2019-05-12T08:00:21.214Z,99644.20
2019-05-12T08:02:45.105Z,99643.54
2019-05-12T08:05:19.524Z,99637.99
2019-05-12T08:07:44.628Z,99642.33
2019-05-12T08:10:19.949Z,99643.72
2019-05-12T08:12:44.429Z,99639.23
2019-05-12T08:15:14.097Z,99646.97
2019-05-12T08:17:44.136Z,99643.81
2019-05-12T08:20:13.500Z,99649.00
2019-05-12T08:22:43.792Z,99658.73
2019-05-12T08:25:13.489Z,99655.66
2019-05-12T08:27:45.220Z,99664.92
2019-05-12T08:30:13.841Z,99662.42
2019-05-12T08:32:44.247Z,99668.48
2019-05-12T08:35:13.931Z,99673.26
2019-05-12T08:37:44.102Z,99674.78
2019-05-12T08:40:15.370Z,99677.25
2019-05-12T08:42:43.814Z,99676.16
2019-05-12T08:45:15.101Z,99673.78
2019-05-12T08:47:44.057Z,99684.41
2019-05-12T08:50:13.692Z,99696.97
2019-05-12T08:52:44.240Z,99700.84
2019-05-12T08:55:16.372Z,99702.86
2019-05-12T08:57:49.279Z,99713.72
2019-05-12T09:00:13.572Z,99710.91
2019-05-12T09:02:46.090Z,99720.22
2019-05-12T09:05:14.258Z,99723.08
2019-05-12T09:07:43.661Z,99725.53
2019-05-12T09:10:14.325Z,99728.73
2019-05-12T09:12:44.143Z,99732.97
2019-05-12T09:15:13.590Z,99729.06
2019-05-12T09:17:48.972Z,99726.55
2019-05-12T09:20:13.738Z,99735.50
2019-05-12T09:22:43.236Z,99742.27
2019-05-12T09:25:14.115Z,99742.57
2019-05-12T09:27:45.650Z,99746.01
2019-05-12T09:30:14.162Z,99749.25
2019-05-12T09:32:48.576Z,99750.84
2019-05-12T09:35:14.424Z,99753.81
2019-05-12T09:37:44.181Z,99761.56
2019-05-12T09:40:14.945Z,99764.93
2019-05-12T09:42:44.082Z,99769.52
2019-05-12T09:45:13.829Z,99770.58
2019-05-12T09:47:43.605Z,99774.84
2019-05-12T09:50:18.350Z,99775.64
2019-05-12T09:52:44.133Z,99782.13
2019-05-12T09:55:14.785Z,99779.99
2019-05-12T09:57:45.149Z,99780.59
2019-05-12T10:00:13.927Z,99780.95
2019-05-12T10:02:43.618Z,99787.83
2019-05-12T10:05:14.417Z,99779.16
2019-05-12T10:07:44.514Z,99773.57
2019-05-12T10:10:14.181Z,99774.84
2019-05-12T10:12:46.199Z,99764.07
2019-05-12T10:15:18.873Z,99771.15
2019-05-12T10:17:44.070Z,99772.76
2019-05-12T10:20:13.681Z,99774.26
2019-05-12T10:22:43.735Z,99774.86
2019-05-12T10:25:14.648Z,99770.45
2019-05-12T10:27:44.252Z,99773.36
2019-05-12T10:30:17.029Z,99778.15
2019-05-12T10:32:43.732Z,99781.75
2019-05-12T10:35:20.857Z,99772.50
2019-05-12T10:37:44.370Z,99768.51
2019-05-12T10:40:13.950Z,99777.17
2019-05-12T10:42:47.790Z,99775.84
2019-05-12T10:45:18.929Z,99782.61
2019-05-12T10:47:43.463Z,99783.93
2019-05-12T10:50:14.233Z,99789.50
2019-05-12T10:52:44.007Z,99787.33
2019-05-12T10:55:13.539Z,99793.18
2019-05-12T10:57:43.966Z,99794.45
2019-05-12T11:00:19.938Z,99793.84
2019-05-12T11:02:44.797Z,99794.61
2019-05-12T11:05:21.135Z,99801.09
2019-05-12T11:07:43.830Z,99790.70
2019-05-12T11:10:19.143Z,99791.27
2019-05-12T11:12:44.168Z,99784.66
2019-05-12T11:15:13.616Z,99793.14
2019-05-12T11:17:53.372Z,99788.57
2019-05-12T11:20:24.878Z,99786.80
2019-05-12T11:22:54.345Z,99792.33
2019-05-12T11:25:24.700Z,99795.73
2019-05-12T11:27:54.961Z,99791.62
2019-05-12T11:30:23.854Z,99796.18
2019-05-12T11:32:54.002Z,99793.98
2019-05-12T11:35:23.719Z,99790.53
2019-05-12T11:37:53.895Z,99787.37
2019-05-12T11:40:23.884Z,99788.09
2019-05-12T11:42:58.965Z,99789.73
2019-05-12T11:45:24.224Z,99789.63
2019-05-12T11:47:56.899Z,99796.27
2019-05-12T11:50:22.964Z,99796.79
2019-05-12T11:52:52.292Z,99794.38
2019-05-12T11:55:21.258Z,99812.78
2019-05-12T11:57:51.039Z,99820.08
2019-05-12T12:00:21.294Z,99815.92
2019-05-12T12:02:49.766Z,99817.83
2019-05-12T12:05:18.344Z,99825.52
2019-05-12T12:07:51.173Z,99833.09
2019-05-12T12:10:17.166Z,99838.05
2019-05-12T12:12:49.196Z,99839.57
2019-05-12T12:15:20.302Z,99838.05
2019-05-12T12:17:46.176Z,99838.41
2019-05-12T12:20:22.655Z,99844.62
2019-05-12T12:22:46.971Z,99845.19
2019-05-12T12:25:19.829Z,99846.35
2019-05-12T12:27:48.306Z,99847.38
2019-05-12T12:30:19.985Z,99852.30
2019-05-12T12:32:50.311Z,99848.80
2019-05-12T12:35:17.545Z,99856.25
2019-05-12T12:37:46.018Z,99858.75
2019-05-12T12:40:14.745Z,99863.61
2019-05-12T12:42:47.087Z,99865.27
2019-05-12T12:45:23.866Z,99862.76
2019-05-12T12:47:54.034Z,99864.87
2019-05-12T12:50:26.443Z,99865.76
2019-05-12T12:52:53.395Z,99873.25
2019-05-12T12:55:23.436Z,99872.26
2019-05-12T12:57:51.946Z,99873.48
2019-05-12T13:00:29.869Z,99877.08
2019-05-12T13:02:50.974Z,99880.92
2019-05-12T13:05:20.773Z,99878.54
2019-05-12T13:07:50.022Z,99884.27
2019-05-12T13:10:18.649Z,99891.66
2019-05-12T13:12:50.294Z,99883.30
2019-05-12T13:15:20.837Z,99879.77
2019-05-12T13:17:47.782Z,99874.80
2019-05-12T13:20:16.615Z,99882.92
2019-05-12T13:22:45.151Z,99892.23
2019-05-12T13:25:14.359Z,99891.38
2019-05-12T13:27:42.827Z,99894.33
2019-05-12T13:30:16.338Z,99904.25
2019-05-12T13:32:43.984Z,99903.37
2019-05-12T13:35:16.527Z,99900.67
2019-05-12T13:37:43.282Z,99901.48
2019-05-12T13:40:12.000Z,99901.80
2019-05-12T13:42:40.467Z,99904.19
2019-05-12T13:45:09.506Z,99909.20
2019-05-12T13:47:39.965Z,99916.62
2019-05-12T13:50:13.325Z,99908.52
2019-05-12T13:52:38.541Z,99906.47
2019-05-12T13:55:07.733Z,99910.73
2019-05-12T13:57:36.315Z,99905.53
2019-05-12T14:00:10.580Z,99919.29
2019-05-12T14:02:37.508Z,99908.86
2019-05-12T14:05:11.681Z,99918.00
2019-05-12T14:07:37.431Z,99914.70
2019-05-12T14:10:08.061Z,99910.19
2019-05-12T14:12:36.528Z,99908.77
2019-05-12T14:15:07.236Z,99913.21
2019-05-12T14:17:40.191Z,99904.70
2019-05-12T14:20:09.343Z,99906.86
2019-05-12T14:22:41.513Z,99908.64
2019-05-12T14:25:09.042Z,99904.80
2019-05-12T14:27:37.523Z,99907.45
2019-05-12T14:30:11.598Z,99911.98
2019-05-12T14:32:36.751Z,99918.70
2019-05-12T14:35:07.791Z,99924.06
2019-05-12T14:37:40.353Z,99930.04
2019-05-12T14:40:06.732Z,99925.72
2019-05-12T14:42:39.669Z,99930.95
2019-05-12T14:45:07.233Z,99922.18
2019-05-12T14:47:38.801Z,99923.16
2019-05-12T14:50:06.225Z,99924.83
2019-05-12T14:52:34.696Z,99924.48
2019-05-12T14:55:03.601Z,99928.29
2019-05-12T14:57:37.418Z,99933.38
2019-05-12T15:00:03.961Z,99937.44
2019-05-12T15:02:33.195Z,99938.66
2019-05-12T15:05:06.468Z,99930.49
2019-05-12T15:07:32.072Z,99937.59
2019-05-12T15:10:07.044Z,99937.58
2019-05-12T15:12:30.758Z,99945.73
2019-05-12T15:14:59.228Z,99950.83
2019-05-12T15:17:27.799Z,99947.64
2019-05-12T15:20:00.230Z,99947.02
2019-05-12T15:22:26.941Z,99953.09
2019-05-12T15:24:58.913Z,99950.27
2019-05-12T15:27:41.304Z,99950.98
2019-05-12T15:29:59.414Z,99948.69
2019-05-12T15:32:26.106Z,99949.19
2019-05-12T15:34:54.592Z,99959.57
2019-05-12T15:37:23.819Z,99966.00
2019-05-12T15:39:53.535Z,99962.88
2019-05-12T15:42:23.550Z,99954.59
2019-05-12T15:44:53.767Z,99956.19
2019-05-12T15:47:29.431Z,99953.07
2019-05-12T15:49:53.167Z,99957.94
2019-05-12T15:52:21.773Z,99962.91
2019-05-12T15:54:51.412Z,99954.83
2019-05-12T15:57:20.479Z,99958.20
2019-05-12T15:59:48.947Z,99971.95
2019-05-12T16:02:17.508Z,99966.33
2019-05-12T16:04:48.481Z,99981.23
2019-05-12T16:07:16.191Z,99971.08
2019-05-12T16:09:45.693Z,99969.34
2019-05-12T16:12:21.954Z,99962.74
2019-05-12T16:14:44.436Z,99968.30
2019-05-12T16:17:18.973Z,99972.20
2019-05-12T16:19:43.813Z,99972.95
2019-05-12T16:22:13.924Z,99972.47
2019-05-12T16:24:43.429Z,99977.30
2019-05-12T16:27:14.043Z,99982.30
2019-05-12T16:29:45.618Z,99982.55
2019-05-12T16:32:26.480Z,99983.54
2019-05-12T16:34:47.760Z,99978.91
2019-05-12T16:37:14.105Z,99994.27
2019-05-12T16:39:47.111Z,99998.09
2019-05-12T16:42:14.054Z,99992.48
2019-05-12T16:44:44.037Z,99994.58
2019-05-12T16:47:13.381Z,99996.33
2019-05-12T16:49:44.616Z,99992.84
2019-05-12T16:52:13.913Z,100001.70
2019-05-12T16:54:43.972Z,100005.80
2019-05-12T16:57:17.670Z,100004.66
2019-05-12T16:59:42.751Z,100007.13
2019-05-12T17:02:11.257Z,100012.58
2019-05-12T17:04:39.727Z,100004.11
2019-05-12T17:07:09.779Z,100010.52
2019-05-12T17:09:38.421Z,100012.33
2019-05-12T17:12:06.893Z,100018.37
2019-05-12T17:14:44.300Z,100023.72
2019-05-12T17:17:05.605Z,100022.06
2019-05-12T17:19:34.129Z,100022.06
2019-05-12T17:22:04.065Z,100019.99
2019-05-12T17:24:34.457Z,100028.69
2019-05-12T17:27:03.716Z,100033.95
2019-05-12T17:29:33.449Z,100024.30
2019-05-12T17:32:03.984Z,100029.52
2019-05-12T17:34:33.962Z,100038.20
2019-05-12T17:37:03.959Z,100036.66
2019-05-12T17:39:35.556Z,100046.76
2019-05-12T17:42:02.971Z,100042.37
2019-05-12T17:44:36.954Z,100046.31
2019-05-12T17:47:03.762Z,100046.00
2019-05-12T17:49:31.889Z,100051.69
2019-05-12T17:52:04.560Z,100049.98
2019-05-12T17:54:30.764Z,100053.81
2019-05-12T17:56:59.247Z,100067.84
2019-05-12T17:59:29.495Z,100063.95
2019-05-12T18:01:58.007Z,100071.20
2019-05-12T18:04:30.519Z,100072.97
2019-05-12T18:06:56.696Z,100077.70
2019-05-12T18:09:25.202Z,100075.98
2019-05-12T18:11:56.118Z,100077.31
2019-05-12T18:14:27.572Z,100078.80
2019-05-12T18:17:02.362Z,100087.73
2019-05-12T18:19:24.371Z,100087.17
2019-05-12T18:21:54.883Z,100088.19
2019-05-12T18:24:26.469Z,100089.75
2019-05-12T18:27:02.142Z,100096.73
2019-05-12T18:29:27.286Z,100103.52
2019-05-12T18:31:55.760Z,100108.59
2019-05-12T18:34:25.257Z,100111.83
2019-05-12T18:36:58.935Z,100122.47
2019-05-12T18:39:25.581Z,100127.52
2019-05-12T18:41:54.257Z,100131.23
2019-05-12T18:44:31.239Z,100133.87
2019-05-12T18:46:53.889Z,100139.14
2019-05-12T18:49:23.847Z,100146.41
2019-05-12T18:51:55.095Z,100150.96
2019-05-12T18:54:24.319Z,100154.75
2019-05-12T18:57:02.016Z,100157.80
2019-05-12T18:59:23.453Z,100161.81
2019-05-12T19:01:53.974Z,100163.02
2019-05-12T19:04:22.643Z,100167.98
2019-05-12T19:06:51.120Z,100179.42
2019-05-12T19:09:19.614Z,100174.33
2019-05-12T19:11:48.172Z,100180.30
2019-05-12T19:14:16.688Z,100181.25
2019-05-12T19:16:45.160Z,100189.12
2019-05-12T19:19:18.401Z,100187.80
2019-05-12T19:21:46.818Z,100193.70
2019-05-12T19:24:19.569Z,100194.88
2019-05-12T19:26:46.508Z,100199.13
2019-05-12T19:29:14.474Z,100201.91
2019-05-12T19:31:52.085Z,100208.48
2019-05-12T19:34:19.911Z,100216.00
2019-05-12T19:36:47.689Z,100215.84
2019-05-12T19:39:13.667Z,100215.02
2019-05-12T19:41:43.690Z,100217.56
2019-05-12T19:44:13.442Z,100229.84
2019-05-12T19:46:45.872Z,100229.80
2019-05-12T19:49:12.288Z,100227.28
2019-05-12T19:51:40.784Z,100229.80
2019-05-12T19:54:09.286Z,100236.67
2019-05-12T19:56:39.551Z,100237.25
2019-05-12T19:59:07.970Z,100242.88
2019-05-12T20:01:36.524Z,100250.47
2019-05-12T20:04:05.099Z,100252.86
2019-05-12T20:09:06.679Z,100258.92
2019-05-12T20:11:32.403Z,100265.19
2019-05-12T20:14:00.875Z,100269.50
2019-05-12T20:16:30.645Z,100274.03
2019-05-12T20:18:59.645Z,100275.22
2019-05-12T20:21:28.600Z,100278.77
2019-05-12T20:23:57.101Z,100277.20
2019-05-12T20:26:25.694Z,100279.48
2019-05-12T20:28:55.467Z,100283.84
2019-05-12T20:31:27.067Z,100277.22
2019-05-12T20:33:57.507Z,100278.05
2019-05-12T20:36:26.084Z,100278.52
2019-05-12T20:38:54.660Z,100278.39
2019-05-12T20:41:26.185Z,100271.72
2019-05-12T20:43:53.363Z,100276.77
2019-05-12T20:46:25.775Z,100281.09
2019-05-12T20:48:53.817Z,100284.68
2019-05-12T20:51:24.450Z,100291.78
2019-05-12T20:53:52.635Z,100288.19
2019-05-12T20:56:24.378Z,100282.28
2019-05-12T20:58:51.328Z,100289.50
2019-05-12T21:01:20.155Z,100289.20
2019-05-12T21:03:50.976Z,100292.72
2019-05-12T21:06:19.607Z,100302.38
2019-05-12T21:08:53.625Z,100303.39
2019-05-12T21:11:18.300Z,100305.21
2019-05-12T21:13:46.769Z,100310.97
2019-05-12T21:16:19.490Z,100312.97
2019-05-12T21:18:50.471Z,100313.02
2019-05-12T21:21:15.706Z,100319.72
2019-05-12T21:23:47.896Z,100321.91
2019-05-12T21:26:14.415Z,100326.68
2019-05-12T21:28:48.097Z,100323.23
2019-05-12T21:31:14.185Z,100323.92
2019-05-12T21:33:42.787Z,100326.63
2019-05-12T21:36:17.386Z,100337.17
2019-05-12T21:38:41.472Z,100330.75
2019-05-12T21:41:10.252Z,100334.20
2019-05-12T21:43:38.722Z,100333.27
2019-05-12T21:46:12.314Z,100339.96
2019-05-12T21:48:37.406Z,100334.67
2019-05-12T21:51:09.776Z,100336.72
2019-05-12T21:53:36.125Z,100332.22
2019-05-12T21:56:05.734Z,100332.22
2019-05-12T21:58:34.269Z,100340.61
2019-05-12T22:01:07.570Z,100346.87
2019-05-12T22:03:34.768Z,100347.21
2019-05-12T22:06:14.840Z,100352.98
2019-05-12T22:08:33.901Z,100354.16
2019-05-12T22:11:09.019Z,100354.84
2019-05-12T22:13:32.728Z,100358.82
2019-05-12T22:16:03.658Z,100361.79
2019-05-12T22:18:33.362Z,100360.03
2019-05-12T22:21:05.989Z,100364.93
2019-05-12T22:23:33.737Z,100357.64
2019-05-12T22:26:04.145Z,100359.02
2019-05-12T22:28:34.156Z,100361.66
2019-05-12T22:31:02.496Z,100357.62
2019-05-12T22:33:33.204Z,100358.10
2019-05-12T22:36:06.226Z,100353.23
2019-05-12T22:38:33.863Z,100354.45
2019-05-12T22:41:01.591Z,100354.62
2019-05-12T22:43:31.498Z,100355.98
2019-05-12T22:46:00.276Z,100355.64
2019-05-12T22:48:29.654Z,100355.30
2019-05-12T22:50:58.951Z,100357.62
2019-05-12T22:53:30.140Z,100367.97
2019-05-12T22:56:04.431Z,100363.72
2019-05-12T22:58:27.838Z,100366.39
2019-05-12T23:01:00.927Z,100370.51
2019-05-12T23:03:26.514Z,100367.28
2019-05-12T23:06:00.105Z,100367.92
2019-05-12T23:08:25.195Z,100373.55
2019-05-12T23:10:56.075Z,100375.86
2019-05-12T23:13:24.006Z,100370.28
2019-05-12T23:15:52.482Z,100371.89
2019-05-12T23:18:28.761Z,100364.53
2019-05-12T23:20:53.999Z,100366.30
2019-05-12T23:23:24.181Z,100369.55
2019-05-12T23:26:00.092Z,100374.18
2019-05-12T23:28:22.358Z,100374.34
2019-05-12T23:30:50.828Z,100380.10
2019-05-12T23:33:25.439Z,100379.44
2019-05-12T23:35:49.506Z,100380.44
2019-05-12T23:38:20.891Z,100384.67
2019-05-12T23:40:48.203Z,100385.66
2019-05-12T23:43:16.696Z,100388.28
2019-05-12T23:45:45.158Z,100390.84
2019-05-12T23:48:14.389Z,100389.75
2019-05-12T23:50:43.845Z,100386.34
2019-05-12T23:53:14.012Z,100392.19
2019-05-12T23:55:43.758Z,100397.43
2019-05-12T23:58:14.412Z,100404.02
